Tinos, Greece
Current Conditions -  °F | °C
As of 8:50 PM on Friday 28 Nov 2014 (Local Time) from LGMK Reporting Station
Scattered Clouds Scattered Clouds  
Wind Chill: 54°   Ceiling: Unl
Heat Index: 54°   Visibility: 6mi
Dew Point: 50°   Wind: 5mph
Humidity: 88%   Direction: 50°NE
Pressure: 30.21"   Gusts: NA
Location:  37.53°N, 25.17°E
Report Text: LGMK 281750Z 05004KT 9999 FEW018 SCT200 12/10 Q1023
Loading
Personal Weather Stations






























Interactive Weather Map New forecast layout! Learn more

10-Day Weather Forecast

Advertisements
Track Severe Weather on mobile